Airport View

Enter AWOS ICAO identifier for current METAR.

ex. KFNL

KOCQ 170951Z AUTO 17004KT 10SM BKN110 01/M01 A3009 RMK AO1 T00051008

17 Nov 2019 09:52

Frequency: 120.925

Phone: 920-835-1599

Other Area AWOS: KMNM - KSUE - KGRB - KEZS

TAF KGRB 170520Z 1706/1806 15007KT P6SM BKN150 FM170900 17008KT P6SM OVC100 FM171600 18008KT P6SM BKN020 OVC070 FM171800 20007KT 4SM -RASN BKN010 FM172300 22005KT 5SM BR BKN008